Terminal Aerodrome Forecast
Issued by NWS

Home | Current Version | Previous Version | Graphics & Text | Print | Product List | Glossary On
Versions: 1 2 3 4 5 6 7 8 9 10 11 12 13 14 15 16 17 18
000
FTUS43 KGRB 261000 AAC
TAFATW
TAF AMD
KATW 261023Z 2610/2706 VRB03KT 6SM BR BKN060
     FM261600 VRB03KT 5SM HZ BKN025 BKN090
     FM270100 35004KT 6SM BR BKN020 OVC060=

USA.gov is the U.S. government's official web portal to all federal, state and local government web resources and services.